sensor_id;sensor_type;location;lat;lon;timestamp;temperature;humidity
8541;DHT22;4308;51.294;6.590;2024-03-23T00:51:20;6.90;99.90
8541;DHT22;4308;51.294;6.590;2024-03-23T00:53:46;6.60;99.90
8541;DHT22;4308;51.294;6.590;2024-03-23T00:56:13;6.40;99.90
8541;DHT22;4308;51.294;6.590;2024-03-23T00:58:39;6.40;99.90
8541;DHT22;4308;51.294;6.590;2024-03-23T01:01:05;6.40;99.90
8541;DHT22;4308;51.294;6.590;2024-03-23T01:03:32;5.90;99.90
8541;DHT22;4308;51.294;6.590;2024-03-23T01:06:02;6.20;99.90
8541;DHT22;4308;51.294;6.590;2024-03-23T01:08:28;5.90;99.90
8541;DHT22;4308;51.294;6.590;2024-03-23T01:25:42;6.20;99.90
8541;DHT22;4308;51.294;6.590;2024-03-23T01:28:09;6.00;99.90
8541;DHT22;4308;51.294;6.590;2024-03-23T01:30:35;6.00;99.90
8541;DHT22;4308;51.294;6.590;2024-03-23T01:33:02;6.00;99.90
8541;DHT22;4308;51.294;6.590;2024-03-23T01:35:29;6.00;99.90
8541;DHT22;4308;51.294;6.590;2024-03-23T01:37:55;5.90;99.90
8541;DHT22;4308;51.294;6.590;2024-03-23T01:40:21;6.00;99.90
8541;DHT22;4308;51.294;6.590;2024-03-23T01:42:58;6.00;99.90
8541;DHT22;4308;51.294;6.590;2024-03-23T01:45:24;6.10;99.90
8541;DHT22;4308;51.294;6.590;2024-03-23T01:47:54;6.10;99.90
8541;DHT22;4308;51.294;6.590;2024-03-23T01:50:21;6.10;99.90
8541;DHT22;4308;51.294;6.590;2024-03-23T01:52:48;6.20;99.90
8541;DHT22;4308;51.294;6.590;2024-03-23T01:55:15;6.20;99.90
8541;DHT22;4308;51.294;6.590;2024-03-23T01:57:41;6.40;99.90
8541;DHT22;4308;51.294;6.590;2024-03-23T02:00:08;6.40;99.90
8541;DHT22;4308;51.294;6.590;2024-03-23T02:02:34;6.40;99.90
8541;DHT22;4308;51.294;6.590;2024-03-23T02:05:01;6.50;99.90
8541;DHT22;4308;51.294;6.590;2024-03-23T02:07:27;6.60;99.90
8541;DHT22;4308;51.294;6.590;2024-03-23T02:09:54;6.60;99.90
8541;DHT22;4308;51.294;6.590;2024-03-23T02:12:20;6.60;99.90
8541;DHT22;4308;51.294;6.590;2024-03-23T02:14:47;6.60;99.90
8541;DHT22;4308;51.294;6.590;2024-03-23T02:17:13;6.60;99.90
8541;DHT22;4308;51.294;6.590;2024-03-23T02:19:40;6.50;99.90
8541;DHT22;4308;51.294;6.590;2024-03-23T02:27:02;6.40;99.90
8541;DHT22;4308;51.294;6.590;2024-03-23T02:29:28;6.50;99.90
8541;DHT22;4308;51.294;6.590;2024-03-23T02:31:55;6.50;99.90
8541;DHT22;4308;51.294;6.590;2024-03-23T02:34:21;6.50;99.90
8541;DHT22;4308;51.294;6.590;2024-03-23T02:36:47;6.50;99.90
8541;DHT22;4308;51.294;6.590;2024-03-23T02:39:14;6.60;99.90
8541;DHT22;4308;51.294;6.590;2024-03-23T02:41:40;6.50;99.90
8541;DHT22;4308;51.294;6.590;2024-03-23T02:44:06;6.50;99.90
8541;DHT22;4308;51.294;6.590;2024-03-23T02:46:33;6.50;99.90
8541;DHT22;4308;51.294;6.590;2024-03-23T02:48:59;6.50;99.90
8541;DHT22;4308;51.294;6.590;2024-03-23T02:51:25;6.50;99.90
8541;DHT22;4308;51.294;6.590;2024-03-23T02:53:51;6.50;99.90
8541;DHT22;4308;51.294;6.590;2024-03-23T02:56:18;6.50;99.90
8541;DHT22;4308;51.294;6.590;2024-03-23T02:58:44;6.50;99.90
8541;DHT22;4308;51.294;6.590;2024-03-23T03:01:10;6.50;99.90
8541;DHT22;4308;51.294;6.590;2024-03-23T03:03:37;6.50;99.90
8541;DHT22;4308;51.294;6.590;2024-03-23T03:06:03;6.50;99.90
8541;DHT22;4308;51.294;6.590;2024-03-23T03:08:30;6.50;99.90
8541;DHT22;4308;51.294;6.590;2024-03-23T03:10:56;6.60;99.90
8541;DHT22;4308;51.294;6.590;2024-03-23T03:13:22;6.60;99.90
8541;DHT22;4308;51.294;6.590;2024-03-23T03:15:49;6.50;99.90
8541;DHT22;4308;51.294;6.590;2024-03-23T03:18:15;6.60;99.90
8541;DHT22;4308;51.294;6.590;2024-03-23T03:20:41;6.60;99.90
8541;DHT22;4308;51.294;6.590;2024-03-23T03:23:08;6.60;99.90
8541;DHT22;4308;51.294;6.590;2024-03-23T03:25:34;6.60;99.90
8541;DHT22;4308;51.294;6.590;2024-03-23T03:28:01;6.60;99.90
8541;DHT22;4308;51.294;6.590;2024-03-23T03:30:27;6.70;99.90
8541;DHT22;4308;51.294;6.590;2024-03-23T03:32:53;6.50;99.90
8541;DHT22;4308;51.294;6.590;2024-03-23T03:35:20;6.50;99.90
8541;DHT22;4308;51.294;6.590;2024-03-23T03:37:46;6.50;99.90
8541;DHT22;4308;51.294;6.590;2024-03-23T03:42:41;6.30;99.90
8541;DHT22;4308;51.294;6.590;2024-03-23T03:45:07;6.30;99.90
8541;DHT22;4308;51.294;6.590;2024-03-23T03:47:33;6.40;99.90
8541;DHT22;4308;51.294;6.590;2024-03-23T03:50:00;6.30;99.90
8541;DHT22;4308;51.294;6.590;2024-03-23T03:52:26;6.30;99.90
8541;DHT22;4308;51.294;6.590;2024-03-23T03:55:01;6.30;99.90
8541;DHT22;4308;51.294;6.590;2024-03-23T03:57:27;6.30;99.90
8541;DHT22;4308;51.294;6.590;2024-03-23T03:59:54;6.10;99.90
8541;DHT22;4308;51.294;6.590;2024-03-23T04:02:20;6.20;99.90
8541;DHT22;4308;51.294;6.590;2024-03-23T04:04:46;6.30;99.90
8541;DHT22;4308;51.294;6.590;2024-03-23T04:07:13;6.30;99.90
8541;DHT22;4308;51.294;6.590;2024-03-23T04:09:39;6.40;99.90
8541;DHT22;4308;51.294;6.590;2024-03-23T04:12:06;6.30;99.90
8541;DHT22;4308;51.294;6.590;2024-03-23T04:14:32;6.30;99.90
8541;DHT22;4308;51.294;6.590;2024-03-23T04:16:59;6.30;99.90
8541;DHT22;4308;51.294;6.590;2024-03-23T04:19:25;6.30;99.90
8541;DHT22;4308;51.294;6.590;2024-03-23T04:21:52;6.30;99.90
8541;DHT22;4308;51.294;6.590;2024-03-23T04:24:18;6.30;99.90
8541;DHT22;4308;51.294;6.590;2024-03-23T04:26:44;6.20;99.90
8541;DHT22;4308;51.294;6.590;2024-03-23T04:29:10;6.20;99.90
8541;DHT22;4308;51.294;6.590;2024-03-23T04:31:37;6.20;99.90
8541;DHT22;4308;51.294;6.590;2024-03-23T04:34:03;6.20;99.90
8541;DHT22;4308;51.294;6.590;2024-03-23T04:36:30;6.20;99.90
8541;DHT22;4308;51.294;6.590;2024-03-23T04:38:57;6.10;99.90
8541;DHT22;4308;51.294;6.590;2024-03-23T04:41:24;6.20;99.90
8541;DHT22;4308;51.294;6.590;2024-03-23T04:43:50;6.20;99.90
8541;DHT22;4308;51.294;6.590;2024-03-23T04:46:16;6.20;99.90
8541;DHT22;4308;51.294;6.590;2024-03-23T04:48:43;6.20;99.90
8541;DHT22;4308;51.294;6.590;2024-03-23T04:51:10;6.20;99.90
8541;DHT22;4308;51.294;6.590;2024-03-23T04:53:36;6.20;99.90
8541;DHT22;4308;51.294;6.590;2024-03-23T04:56:02;6.20;99.90
8541;DHT22;4308;51.294;6.590;2024-03-23T04:58:29;6.20;99.90
8541;DHT22;4308;51.294;6.590;2024-03-23T05:00:56;6.30;99.90
8541;DHT22;4308;51.294;6.590;2024-03-23T05:03:23;6.30;99.90
8541;DHT22;4308;51.294;6.590;2024-03-23T05:05:50;6.20;99.90
8541;DHT22;4308;51.294;6.590;2024-03-23T05:08:16;6.30;99.90
8541;DHT22;4308;51.294;6.590;2024-03-23T05:10:43;6.20;99.90
8541;DHT22;4308;51.294;6.590;2024-03-23T05:13:10;6.20;99.90
8541;DHT22;4308;51.294;6.590;2024-03-23T05:15:36;6.20;99.90
8541;DHT22;4308;51.294;6.590;2024-03-23T05:18:03;6.20;99.90
8541;DHT22;4308;51.294;6.590;2024-03-23T05:20:30;6.10;99.90
8541;DHT22;4308;51.294;6.590;2024-03-23T05:22:56;6.20;99.90
8541;DHT22;4308;51.294;6.590;2024-03-23T05:25:22;6.20;99.90
8541;DHT22;4308;51.294;6.590;2024-03-23T05:27:49;6.20;99.90
8541;DHT22;4308;51.294;6.590;2024-03-23T05:32:43;5.70;99.90
8541;DHT22;4308;51.294;6.590;2024-03-23T05:35:09;6.20;99.90
8541;DHT22;4308;51.294;6.590;2024-03-23T05:40:03;5.90;99.90
8541;DHT22;4308;51.294;6.590;2024-03-23T05:42:30;6.10;99.90
8541;DHT22;4308;51.294;6.590;2024-03-23T05:44:56;6.00;99.90
8541;DHT22;4308;51.294;6.590;2024-03-23T05:49:50;5.80;99.90
8541;DHT22;4308;51.294;6.590;2024-03-23T05:52:16;5.90;99.90
8541;DHT22;4308;51.294;6.590;2024-03-23T05:54:42;5.90;99.90
8541;DHT22;4308;51.294;6.590;2024-03-23T05:57:09;5.80;99.90
8541;DHT22;4308;51.294;6.590;2024-03-23T05:59:35;5.70;99.90
8541;DHT22;4308;51.294;6.590;2024-03-23T06:02:02;5.70;99.90
8541;DHT22;4308;51.294;6.590;2024-03-23T06:04:28;5.70;99.90
8541;DHT22;4308;51.294;6.590;2024-03-23T06:06:54;5.70;99.90
8541;DHT22;4308;51.294;6.590;2024-03-23T06:09:21;5.60;99.90
8541;DHT22;4308;51.294;6.590;2024-03-23T06:11:48;5.60;99.90
8541;DHT22;4308;51.294;6.590;2024-03-23T06:14:14;5.70;99.90
8541;DHT22;4308;51.294;6.590;2024-03-23T06:16:41;5.70;99.90
8541;DHT22;4308;51.294;6.590;2024-03-23T06:19:07;5.70;99.90
8541;DHT22;4308;51.294;6.590;2024-03-23T06:21:33;5.80;99.90
8541;DHT22;4308;51.294;6.590;2024-03-23T06:24:00;5.80;99.90
8541;DHT22;4308;51.294;6.590;2024-03-23T06:26:26;5.90;99.90
8541;DHT22;4308;51.294;6.590;2024-03-23T06:31:19;6.00;99.90
8541;DHT22;4308;51.294;6.590;2024-03-23T06:33:45;6.00;99.90
8541;DHT22;4308;51.294;6.590;2024-03-23T06:38:40;5.80;99.90
8541;DHT22;4308;51.294;6.590;2024-03-23T06:41:07;6.20;99.90
8541;DHT22;4308;51.294;6.590;2024-03-23T06:43:34;6.20;99.90
8541;DHT22;4308;51.294;6.590;2024-03-23T06:46:01;6.20;99.90
8541;DHT22;4308;51.294;6.590;2024-03-23T06:51:00;5.90;99.90
8541;DHT22;4308;51.294;6.590;2024-03-23T06:53:28;6.30;99.90
8541;DHT22;4308;51.294;6.590;2024-03-23T07:25:31;6.80;99.90
8541;DHT22;4308;51.294;6.590;2024-03-23T07:27:58;7.10;99.90
8541;DHT22;4308;51.294;6.590;2024-03-23T07:30:24;7.10;99.90
8541;DHT22;4308;51.294;6.590;2024-03-23T07:37:45;6.90;99.90
8541;DHT22;4308;51.294;6.590;2024-03-23T07:40:11;7.00;99.90
8541;DHT22;4308;51.294;6.590;2024-03-23T07:42:38;7.30;99.90
8541;DHT22;4308;51.294;6.590;2024-03-23T07:45:04;7.30;99.90
8541;DHT22;4308;51.294;6.590;2024-03-23T07:47:31;7.40;99.90
8541;DHT22;4308;51.294;6.590;2024-03-23T07:49:57;7.50;99.90
8541;DHT22;4308;51.294;6.590;2024-03-23T07:52:23;7.50;99.90
8541;DHT22;4308;51.294;6.590;2024-03-23T07:54:50;7.60;99.90
8541;DHT22;4308;51.294;6.590;2024-03-23T07:57:16;7.70;99.90
8541;DHT22;4308;51.294;6.590;2024-03-23T07:59:42;7.70;99.90
8541;DHT22;4308;51.294;6.590;2024-03-23T08:02:09;7.80;99.90
8541;DHT22;4308;51.294;6.590;2024-03-23T08:04:35;8.10;99.90
8541;DHT22;4308;51.294;6.590;2024-03-23T08:07:01;8.20;99.90
8541;DHT22;4308;51.294;6.590;2024-03-23T08:09:28;8.40;99.90
8541;DHT22;4308;51.294;6.590;2024-03-23T08:11:54;8.30;99.90
8541;DHT22;4308;51.294;6.590;2024-03-23T08:14:20;8.40;99.90
8541;DHT22;4308;51.294;6.590;2024-03-23T08:16:47;8.60;99.90
8541;DHT22;4308;51.294;6.590;2024-03-23T08:19:13;9.00;99.90
8541;DHT22;4308;51.294;6.590;2024-03-23T08:21:40;9.50;99.90
8541;DHT22;4308;51.294;6.590;2024-03-23T08:24:06;10.00;99.90
8541;DHT22;4308;51.294;6.590;2024-03-23T08:26:33;9.90;99.90
8541;DHT22;4308;51.294;6.590;2024-03-23T08:28:59;9.50;99.90
8541;DHT22;4308;51.294;6.590;2024-03-23T08:31:25;9.20;99.90
8541;DHT22;4308;51.294;6.590;2024-03-23T08:33:52;8.90;99.90
8541;DHT22;4308;51.294;6.590;2024-03-23T08:36:18;8.70;99.90
8541;DHT22;4308;51.294;6.590;2024-03-23T08:38:44;8.20;99.90
8541;DHT22;4308;51.294;6.590;2024-03-23T08:41:11;7.90;99.90
8541;DHT22;4308;51.294;6.590;2024-03-23T08:43:39;7.70;99.90
8541;DHT22;4308;51.294;6.590;2024-03-23T08:46:13;7.60;99.90
8541;DHT22;4308;51.294;6.590;2024-03-23T08:48:42;7.60;99.90
8541;DHT22;4308;51.294;6.590;2024-03-23T08:51:09;7.40;99.90
8541;DHT22;4308;51.294;6.590;2024-03-23T08:53:36;7.50;99.90
8541;DHT22;4308;51.294;6.590;2024-03-23T08:56:03;7.60;99.90
8541;DHT22;4308;51.294;6.590;2024-03-23T08:58:31;7.80;99.90
8541;DHT22;4308;51.294;6.590;2024-03-23T09:01:03;8.10;99.90
8541;DHT22;4308;51.294;6.590;2024-03-23T09:03:30;8.40;99.90
8541;DHT22;4308;51.294;6.590;2024-03-23T09:05:56;8.60;99.90
8541;DHT22;4308;51.294;6.590;2024-03-23T09:08:23;8.60;99.90
8541;DHT22;4308;51.294;6.590;2024-03-23T09:10:49;8.90;99.90
8541;DHT22;4308;51.294;6.590;2024-03-23T09:13:16;9.10;99.90
8541;DHT22;4308;51.294;6.590;2024-03-23T09:15:51;9.20;99.90
8541;DHT22;4308;51.294;6.590;2024-03-23T09:18:18;9.30;99.90
8541;DHT22;4308;51.294;6.590;2024-03-23T09:20:44;9.50;99.90
8541;DHT22;4308;51.294;6.590;2024-03-23T09:23:10;9.60;99.90
8541;DHT22;4308;51.294;6.590;2024-03-23T09:25:40;9.60;99.90
8541;DHT22;4308;51.294;6.590;2024-03-23T09:28:07;9.60;99.90
8541;DHT22;4308;51.294;6.590;2024-03-23T09:30:35;9.80;99.90
8541;DHT22;4308;51.294;6.590;2024-03-23T09:33:03;10.10;99.90
8541;DHT22;4308;51.294;6.590;2024-03-23T09:35:29;10.00;99.90
8541;DHT22;4308;51.294;6.590;2024-03-23T09:37:55;9.80;99.90
8541;DHT22;4308;51.294;6.590;2024-03-23T09:40:22;9.60;99.90
8541;DHT22;4308;51.294;6.590;2024-03-23T09:42:51;9.50;99.90
8541;DHT22;4308;51.294;6.590;2024-03-23T09:45:21;9.60;99.90
8541;DHT22;4308;51.294;6.590;2024-03-23T09:47:48;9.60;99.90
8541;DHT22;4308;51.294;6.590;2024-03-23T09:50:15;9.70;99.90
8541;DHT22;4308;51.294;6.590;2024-03-23T09:52:41;9.70;99.90
8541;DHT22;4308;51.294;6.590;2024-03-23T09:55:11;9.80;99.90
8541;DHT22;4308;51.294;6.590;2024-03-23T09:57:37;9.80;99.90
8541;DHT22;4308;51.294;6.590;2024-03-23T10:00:04;9.60;99.90
8541;DHT22;4308;51.294;6.590;2024-03-23T10:02:37;9.80;99.90
8541;DHT22;4308;51.294;6.590;2024-03-23T10:05:04;9.80;99.90
8541;DHT22;4308;51.294;6.590;2024-03-23T10:07:30;9.80;99.90
8541;DHT22;4308;51.294;6.590;2024-03-23T10:09:57;9.80;99.90
8541;DHT22;4308;51.294;6.590;2024-03-23T10:12:24;9.20;99.90
8541;DHT22;4308;51.294;6.590;2024-03-23T10:14:50;8.70;99.90
8541;DHT22;4308;51.294;6.590;2024-03-23T10:17:18;8.40;99.90
8541;DHT22;4308;51.294;6.590;2024-03-23T10:19:49;8.20;99.90
8541;DHT22;4308;51.294;6.590;2024-03-23T10:22:23;8.00;99.90
8541;DHT22;4308;51.294;6.590;2024-03-23T10:24:49;7.90;99.90
8541;DHT22;4308;51.294;6.590;2024-03-23T10:29:47;8.00;99.90
8541;DHT22;4308;51.294;6.590;2024-03-23T10:32:15;8.10;99.90
8541;DHT22;4308;51.294;6.590;2024-03-23T10:34:42;8.20;99.90
8541;DHT22;4308;51.294;6.590;2024-03-23T10:37:09;8.50;99.90
8541;DHT22;4308;51.294;6.590;2024-03-23T10:39:37;8.50;99.90
8541;DHT22;4308;51.294;6.590;2024-03-23T10:42:08;8.30;99.90
8541;DHT22;4308;51.294;6.590;2024-03-23T10:44:35;8.10;99.90
8541;DHT22;4308;51.294;6.590;2024-03-23T10:47:02;8.10;99.90
8541;DHT22;4308;51.294;6.590;2024-03-23T10:49:33;8.10;99.90
8541;DHT22;4308;51.294;6.590;2024-03-23T10:52:04;8.40;99.90
8541;DHT22;4308;51.294;6.590;2024-03-23T10:54:31;8.50;99.90
8541;DHT22;4308;51.294;6.590;2024-03-23T10:57:23;8.70;99.90
8541;DHT22;4308;51.294;6.590;2024-03-23T10:59:52;8.70;99.90
8541;DHT22;4308;51.294;6.590;2024-03-23T11:02:21;8.90;99.90
8541;DHT22;4308;51.294;6.590;2024-03-23T11:04:48;8.90;99.90
8541;DHT22;4308;51.294;6.590;2024-03-23T11:09:56;8.90;99.90
8541;DHT22;4308;51.294;6.590;2024-03-23T11:17:21;9.20;99.90
8541;DHT22;4308;51.294;6.590;2024-03-23T11:20:06;9.20;99.90
8541;DHT22;4308;51.294;6.590;2024-03-23T11:27:44;9.30;99.90
8541;DHT22;4308;51.294;6.590;2024-03-23T11:32:49;9.80;99.90
8541;DHT22;4308;51.294;6.590;2024-03-23T11:35:31;10.30;99.90
8541;DHT22;4308;51.294;6.590;2024-03-23T11:38:24;10.10;99.90
8541;DHT22;4308;51.294;6.590;2024-03-23T11:40:51;9.70;99.90
8541;DHT22;4308;51.294;6.590;2024-03-23T11:43:19;8.50;99.90
8541;DHT22;4308;51.294;6.590;2024-03-23T11:45:46;7.40;99.90
8541;DHT22;4308;51.294;6.590;2024-03-23T11:48:17;6.80;99.90
8541;DHT22;4308;51.294;6.590;2024-03-23T11:50:48;6.40;99.90
8541;DHT22;4308;51.294;6.590;2024-03-23T11:53:20;6.50;99.90
8541;DHT22;4308;51.294;6.590;2024-03-23T11:55:50;6.70;99.90
8541;DHT22;4308;51.294;6.590;2024-03-23T11:58:18;7.00;99.90
8541;DHT22;4308;51.294;6.590;2024-03-23T12:01:05;7.30;99.90
8541;DHT22;4308;51.294;6.590;2024-03-23T12:03:36;7.70;99.90
8541;DHT22;4308;51.294;6.590;2024-03-23T12:06:03;7.90;99.90
8541;DHT22;4308;51.294;6.590;2024-03-23T12:08:33;7.90;99.90
8541;DHT22;4308;51.294;6.590;2024-03-23T12:11:08;7.90;99.90
8541;DHT22;4308;51.294;6.590;2024-03-23T12:13:34;8.00;99.90
8541;DHT22;4308;51.294;6.590;2024-03-23T12:16:17;8.30;99.90
8541;DHT22;4308;51.294;6.590;2024-03-23T12:18:45;8.50;99.90
8541;DHT22;4308;51.294;6.590;2024-03-23T12:21:12;8.70;99.90
8541;DHT22;4308;51.294;6.590;2024-03-23T12:23:39;8.80;99.90
8541;DHT22;4308;51.294;6.590;2024-03-23T12:26:06;8.70;99.90
8541;DHT22;4308;51.294;6.590;2024-03-23T12:28:32;8.70;99.90
8541;DHT22;4308;51.294;6.590;2024-03-23T12:30:59;8.70;99.90
8541;DHT22;4308;51.294;6.590;2024-03-23T12:33:25;8.60;99.90
8541;DHT22;4308;51.294;6.590;2024-03-23T12:35:52;8.80;99.90
8541;DHT22;4308;51.294;6.590;2024-03-23T12:38:18;9.20;99.90
8541;DHT22;4308;51.294;6.590;2024-03-23T12:40:48;9.60;99.90
8541;DHT22;4308;51.294;6.590;2024-03-23T12:43:15;9.80;99.90
8541;DHT22;4308;51.294;6.590;2024-03-23T12:45:47;9.80;99.90
8541;DHT22;4308;51.294;6.590;2024-03-23T12:48:13;9.90;99.90
8541;DHT22;4308;51.294;6.590;2024-03-23T12:50:40;9.80;99.90
8541;DHT22;4308;51.294;6.590;2024-03-23T12:53:06;9.80;99.90
8541;DHT22;4308;51.294;6.590;2024-03-23T12:55:35;9.70;99.90
8541;DHT22;4308;51.294;6.590;2024-03-23T12:58:01;9.50;99.90
8541;DHT22;4308;51.294;6.590;2024-03-23T13:00:28;9.30;99.90
8541;DHT22;4308;51.294;6.590;2024-03-23T13:02:54;9.10;99.90
8541;DHT22;4308;51.294;6.590;2024-03-23T13:05:20;8.70;99.90
8541;DHT22;4308;51.294;6.590;2024-03-23T13:07:47;8.40;99.90
8541;DHT22;4308;51.294;6.590;2024-03-23T13:10:13;8.20;99.90
